You are not logged in, Click here to log in
ICAO: SCFA Country: 安托法加斯塔,智利
Latitude: -23.4445 Longitude: -70.4451
Total Arrivals: 1 Total Departures: 1
Latest Arrival: H2164 (SCSE-SCFA)Stone. Chang Latest Departure: LA1250 (SCFA-SCSE)Stone. Chang
Scenery:
METAR : SCFA 210700Z 29003KT 9999 OVC021 13/08 Q1017 NOSIG

安托法加斯塔塞羅莫雷諾國際機場ANF